Time;durP1;ratioP1;P1;durP2;ratioP2;P2;SDS_P1;SDS_P2;PMS_P1;PMS_P2;Temp;Humidity;BMP_temperature;BMP_pressure;BME280_temperature;BME280_humidity;BME280_pressure;Samples;Min_cycle;Max_cycle;Signal;HPM_P1;HPM_P2
2022/01/01 00:02:03;;;;;;;;;;;11.30;99.90;;;;;;5048148;28;19916;-72
2022/01/01 00:04:28;;;;;;;;;;;11.30;99.90;;;;;;5046454;28;19971;-72
2022/01/01 00:06:54;;;;;;;;;;;11.30;99.90;;;;;;5047272;28;20247;-72
2022/01/01 00:09:19;;;;;;;;;;;11.30;99.90;;;;;;5046918;28;20313;-72
2022/01/01 00:11:45;;;;;;;;;;;11.20;99.90;;;;;;5048500;28;19916;-72
2022/01/01 00:14:10;;;;;;;;;;;11.30;99.90;;;;;;5047066;28;20008;-72
2022/01/01 00:16:36;;;;;;;;;;;11.30;99.90;;;;;;5045631;28;19999;-71
2022/01/01 00:19:01;;;;;;;;;;;11.30;99.90;;;;;;5044246;28;19916;-72
2022/01/01 00:21:27;;;;;;;;;;;11.30;99.90;;;;;;5044787;28;20403;-72
2022/01/01 00:23:53;;;;;;;;;;;11.30;99.90;;;;;;5047489;28;20267;-72
2022/01/01 00:26:18;;;;;;;;;;;11.30;99.90;;;;;;5045212;28;20302;-72
2022/01/01 00:28:44;;;;;;;;;;;11.30;99.90;;;;;;5044330;28;19923;-72
2022/01/01 00:31:10;;;;;;;;;;;11.20;99.90;;;;;;5048394;28;20019;-72
2022/01/01 00:33:35;;;;;;;;;;;11.20;99.90;;;;;;5045874;28;19958;-72
2022/01/01 00:36:01;;;;;;;;;;;11.30;99.90;;;;;;5040103;28;19919;-72
2022/01/01 00:38:27;;;;;;;;;;;11.30;99.90;;;;;;5045251;28;19917;-72
2022/01/01 00:40:52;;;;;;;;;;;11.30;99.90;;;;;;5043498;28;19999;-72
2022/01/01 00:43:18;;;;;;;;;;;11.30;99.90;;;;;;5046960;28;19915;-72
2022/01/01 00:45:43;;;;;;;;;;;11.30;99.90;;;;;;5042599;28;20027;-72
2022/01/01 00:48:09;;;;;;;;;;;11.20;99.90;;;;;;5050538;28;19924;-72
2022/01/01 00:50:34;;;;;;;;;;;11.20;99.90;;;;;;5047839;28;19928;-72
2022/01/01 00:53:00;;;;;;;;;;;11.20;99.90;;;;;;5036329;28;19913;-72
2022/01/01 00:55:26;;;;;;;;;;;11.20;99.90;;;;;;5045009;28;19917;-72
2022/01/01 00:57:51;;;;;;;;;;;11.20;99.90;;;;;;5052248;28;20376;-72
2022/01/01 01:00:17;;;;;;;;;;;11.20;99.90;;;;;;5048127;28;19913;-72
2022/01/01 01:02:42;;;;;;;;;;;11.20;99.90;;;;;;5052175;28;19913;-72
2022/01/01 01:05:08;;;;;;;;;;;11.20;99.90;;;;;;5043008;28;19921;-72
2022/01/01 01:07:33;;;;;;;;;;;11.20;99.90;;;;;;5051746;28;19956;-72
2022/01/01 01:09:59;;;;;;;;;;;11.20;99.90;;;;;;5050571;28;19925;-72
2022/01/01 01:12:32;;;;;;;;;;;11.20;99.90;;;;;;5049726;28;19916;-72
2022/01/01 01:14:58;;;;;;;;;;;11.20;99.90;;;;;;5053944;28;20632;-72
2022/01/01 01:17:23;;;;;;;;;;;11.20;99.90;;;;;;5049952;28;19913;-72
2022/01/01 01:19:49;;;;;;;;;;;11.20;99.90;;;;;;5048749;28;19948;-72
2022/01/01 01:22:14;;;;;;;;;;;11.20;99.90;;;;;;5048730;28;19909;-72
2022/01/01 01:24:40;;;;;;;;;;;11.20;99.90;;;;;;5056722;28;19917;-72
2022/01/01 01:27:06;;;;;;;;;;;11.20;99.90;;;;;;5048768;28;19919;-72
2022/01/01 01:29:33;;;;;;;;;;;11.20;99.90;;;;;;5053792;28;19963;-72
2022/01/01 01:31:59;;;;;;;;;;;11.20;99.90;;;;;;5048221;28;19909;-72
2022/01/01 01:34:24;;;;;;;;;;;11.20;99.90;;;;;;5050347;28;19920;-72
2022/01/01 01:36:50;;;;;;;;;;;11.20;99.90;;;;;;5047542;28;19920;-72
2022/01/01 01:39:15;;;;;;;;;;;11.20;99.90;;;;;;5051209;28;20552;-72
2022/01/01 01:41:43;;;;;;;;;;;11.20;99.90;;;;;;5063357;28;19912;-72
2022/01/01 01:44:29;;;;;;;;;;;11.20;99.90;;;;;;5051151;28;19984;-72
2022/01/01 01:46:55;;;;;;;;;;;11.20;99.90;;;;;;5048472;28;20015;-72
2022/01/01 01:49:20;;;;;;;;;;;11.20;99.90;;;;;;5053747;28;19991;-72
2022/01/01 01:51:46;;;;;;;;;;;11.20;99.90;;;;;;5047045;28;20339;-72
2022/01/01 01:54:13;;;;;;;;;;;11.20;99.90;;;;;;5048565;28;19912;-72
2022/01/01 01:56:39;;;;;;;;;;;11.20;99.90;;;;;;5050713;28;20410;-72
2022/01/01 01:59:04;;;;;;;;;;;11.20;99.90;;;;;;5045611;28;19917;-72
2022/01/01 02:01:30;;;;;;;;;;;11.10;99.90;;;;;;5047757;28;19959;-72
2022/01/01 02:03:57;;;;;;;;;;;11.10;99.90;;;;;;5048551;28;19940;-72
2022/01/01 02:06:23;;;;;;;;;;;11.20;99.90;;;;;;5049611;28;20286;-72
2022/01/01 02:08:50;;;;;;;;;;;11.20;99.90;;;;;;5047789;28;19917;-72
2022/01/01 02:11:18;;;;;;;;;;;11.10;99.90;;;;;;5050046;28;19913;-72
2022/01/01 02:14:03;;;;;;;;;;;11.10;99.90;;;;;;5050806;28;20468;-72
2022/01/01 02:16:39;;;;;;;;;;;11.10;99.90;;;;;;5050297;28;19917;-72
2022/01/01 02:19:05;;;;;;;;;;;11.20;99.90;;;;;;5051509;28;19913;-72
2022/01/01 02:21:30;;;;;;;;;;;11.10;99.90;;;;;;5050728;28;19939;-72
2022/01/01 02:23:59;;;;;;;;;;;11.10;99.90;;;;;;5047185;28;19966;-72
2022/01/01 02:26:29;;;;;;;;;;;11.10;99.90;;;;;;5049106;28;19921;-72
2022/01/01 02:28:55;;;;;;;;;;;11.10;99.90;;;;;;5046920;28;19916;-72
2022/01/01 02:31:20;;;;;;;;;;;11.10;99.90;;;;;;5048801;28;19920;-72
2022/01/01 02:33:46;;;;;;;;;;;11.10;99.90;;;;;;5044966;28;19924;-72
2022/01/01 02:36:11;;;;;;;;;;;11.10;99.90;;;;;;5050891;28;19952;-72
2022/01/01 02:38:37;;;;;;;;;;;11.10;99.90;;;;;;5047197;28;20489;-72
2022/01/01 02:41:03;;;;;;;;;;;11.10;99.90;;;;;;5049133;28;19917;-72
2022/01/01 02:43:28;;;;;;;;;;;11.10;99.90;;;;;;5050265;28;20551;-72
2022/01/01 02:45:54;;;;;;;;;;;11.10;99.90;;;;;;5047411;28;19920;-72
2022/01/01 02:48:19;;;;;;;;;;;11.20;99.90;;;;;;5050786;28;19925;-72
2022/01/01 02:50:45;;;;;;;;;;;11.10;99.90;;;;;;5046583;28;19912;-72
2022/01/01 02:53:13;;;;;;;;;;;11.10;99.90;;;;;;5049951;28;19916;-72
2022/01/01 02:55:39;;;;;;;;;;;11.10;99.90;;;;;;5045941;28;20000;-72
2022/01/01 02:58:05;;;;;;;;;;;11.10;99.90;;;;;;5052194;28;20004;-72
2022/01/01 03:00:30;;;;;;;;;;;11.20;99.90;;;;;;5047789;28;20477;-72
2022/01/01 03:02:56;;;;;;;;;;;11.20;99.90;;;;;;5066657;28;19913;-72
2022/01/01 03:05:21;;;;;;;;;;;11.10;99.90;;;;;;5046246;28;19948;-72
2022/01/01 03:07:47;;;;;;;;;;;11.10;99.90;;;;;;5045081;28;19924;-72
2022/01/01 03:10:12;;;;;;;;;;;11.10;99.90;;;;;;5044793;28;19935;-72
2022/01/01 03:12:38;;;;;;;;;;;11.10;99.90;;;;;;5048636;28;20420;-72
2022/01/01 03:15:04;;;;;;;;;;;11.10;99.90;;;;;;5046950;28;20015;-72
2022/01/01 03:17:29;;;;;;;;;;;11.20;99.90;;;;;;5031704;28;20312;-72
2022/01/01 03:19:55;;;;;;;;;;;11.20;99.90;;;;;;5050735;28;20569;-72
2022/01/01 03:22:20;;;;;;;;;;;11.10;99.90;;;;;;5043468;28;19924;-72
2022/01/01 03:24:46;;;;;;;;;;;11.10;99.90;;;;;;5048807;28;19921;-72
2022/01/01 03:27:11;;;;;;;;;;;11.20;99.90;;;;;;5065318;28;19925;-72
2022/01/01 03:29:38;;;;;;;;;;;11.10;99.90;;;;;;5047382;28;19912;-72
2022/01/01 03:32:04;;;;;;;;;;;11.10;99.90;;;;;;5045806;28;20599;-72
2022/01/01 03:34:29;;;;;;;;;;;11.10;99.90;;;;;;5049427;28;19920;-72
2022/01/01 03:36:55;;;;;;;;;;;11.10;99.90;;;;;;5047084;28;19923;-72
2022/01/01 03:39:22;;;;;;;;;;;11.20;99.90;;;;;;5031608;28;19921;-72
2022/01/01 03:41:47;;;;;;;;;;;11.10;99.90;;;;;;5046641;28;19936;-72
2022/01/01 03:44:13;;;;;;;;;;;11.10;99.90;;;;;;5048278;28;20255;-72
2022/01/01 03:46:38;;;;;;;;;;;11.10;99.90;;;;;;5046411;28;19974;-72
2022/01/01 03:49:04;;;;;;;;;;;11.10;99.90;;;;;;5028289;28;19917;-72
2022/01/01 03:51:29;;;;;;;;;;;11.10;99.90;;;;;;5045557;28;19921;-72
2022/01/01 03:53:55;;;;;;;;;;;11.20;99.90;;;;;;5031210;28;19955;-72
2022/01/01 03:56:20;;;;;;;;;;;11.10;99.90;;;;;;5047781;28;19913;-72
2022/01/01 03:58:46;;;;;;;;;;;11.10;99.90;;;;;;5045199;28;19928;-72
2022/01/01 04:01:11;;;;;;;;;;;11.10;99.90;;;;;;5052305;28;19991;-72
2022/01/01 04:03:38;;;;;;;;;;;11.10;99.90;;;;;;5048427;28;19995;-72
2022/01/01 04:06:04;;;;;;;;;;;11.20;99.90;;;;;;5050644;28;20448;-72
2022/01/01 04:08:30;;;;;;;;;;;11.10;99.90;;;;;;5022838;28;20003;-72
2022/01/01 04:10:56;;;;;;;;;;;11.10;99.90;;;;;;5049947;28;20358;-72
2022/01/01 04:13:22;;;;;;;;;;;11.10;99.90;;;;;;5045809;28;19959;-72
2022/01/01 04:15:48;;;;;;;;;;;11.10;99.90;;;;;;5049230;28;19927;-72
2022/01/01 04:18:19;;;;;;;;;;;11.10;99.90;;;;;;5047561;28;19913;-72
2022/01/01 04:20:47;;;;;;;;;;;11.10;99.90;;;;;;5052029;28;19977;-72
2022/01/01 04:23:13;;;;;;;;;;;11.10;99.90;;;;;;5050365;28;19920;-72
2022/01/01 04:25:38;;;;;;;;;;;11.10;99.90;;;;;;5051562;28;20020;-72
2022/01/01 04:28:04;;;;;;;;;;;11.10;99.90;;;;;;5051354;28;20443;-72
2022/01/01 04:30:30;;;;;;;;;;;11.10;99.90;;;;;;5053719;28;20517;-72
2022/01/01 04:32:55;;;;;;;;;;;11.10;99.90;;;;;;5053042;28;20401;-72
2022/01/01 04:35:21;;;;;;;;;;;11.10;99.90;;;;;;5052701;28;19913;-72
2022/01/01 04:37:47;;;;;;;;;;;11.10;99.90;;;;;;5053652;28;19908;-72
2022/01/01 04:40:12;;;;;;;;;;;11.10;99.90;;;;;;5051891;28;19925;-72
2022/01/01 04:42:38;;;;;;;;;;;11.10;99.90;;;;;;5053488;28;20311;-72
2022/01/01 04:45:04;;;;;;;;;;;11.10;99.90;;;;;;5031707;28;20465;-72
2022/01/01 04:47:29;;;;;;;;;;;11.10;99.90;;;;;;5053883;28;19920;-72
2022/01/01 04:49:55;;;;;;;;;;;11.10;99.90;;;;;;5049237;28;19913;-72
2022/01/01 04:52:20;;;;;;;;;;;11.10;99.90;;;;;;5055587;28;19935;-72
2022/01/01 04:54:46;;;;;;;;;;;11.10;99.90;;;;;;5049131;28;19909;-72
2022/01/01 04:57:12;;;;;;;;;;;11.10;99.90;;;;;;5056795;28;19920;-72
2022/01/01 04:59:38;;;;;;;;;;;11.10;99.90;;;;;;5050813;28;20078;-72
2022/01/01 05:02:04;;;;;;;;;;;11.10;99.90;;;;;;5054741;28;19913;-72
2022/01/01 05:04:29;;;;;;;;;;;11.10;99.90;;;;;;5051815;28;19920;-72
2022/01/01 05:06:55;;;;;;;;;;;11.10;99.90;;;;;;5056969;28;20003;-72
2022/01/01 05:09:21;;;;;;;;;;;11.10;99.90;;;;;;5050588;28;19913;-72
2022/01/01 05:11:47;;;;;;;;;;;11.10;99.90;;;;;;5050303;28;19909;-72
2022/01/01 05:14:13;;;;;;;;;;;11.10;99.90;;;;;;5030378;28;19931;-72
2022/01/01 05:16:39;;;;;;;;;;;11.10;99.90;;;;;;5054890;28;19916;-72
2022/01/01 05:19:05;;;;;;;;;;;11.00;99.90;;;;;;5053651;28;20009;-72
2022/01/01 05:21:32;;;;;;;;;;;11.00;99.90;;;;;;5060513;28;19975;-72
2022/01/01 05:23:59;;;;;;;;;;;11.00;99.90;;;;;;5052370;28;19999;-72
2022/01/01 05:26:24;;;;;;;;;;;11.00;99.90;;;;;;5051752;28;19993;-72
2022/01/01 05:28:50;;;;;;;;;;;11.10;99.90;;;;;;5052906;28;19994;-72
2022/01/01 05:31:16;;;;;;;;;;;11.00;99.90;;;;;;5052761;28;19913;-72
2022/01/01 05:33:42;;;;;;;;;;;11.00;99.90;;;;;;5069617;28;19920;-72
2022/01/01 05:36:07;;;;;;;;;;;11.00;99.90;;;;;;5061852;28;20283;-72
2022/01/01 05:38:33;;;;;;;;;;;11.00;99.90;;;;;;5052896;28;19912;-72
2022/01/01 05:40:58;;;;;;;;;;;11.00;99.90;;;;;;5065172;28;20023;-72
2022/01/01 05:43:24;;;;;;;;;;;11.00;99.90;;;;;;5036428;28;19928;-72
2022/01/01 05:45:49;;;;;;;;;;;11.00;99.90;;;;;;5048735;28;19928;-72
2022/01/01 05:48:15;;;;;;;;;;;11.00;99.90;;;;;;5050214;28;20068;-72
2022/01/01 05:50:40;;;;;;;;;;;11.00;99.90;;;;;;5051366;28;20010;-72
2022/01/01 05:53:06;;;;;;;;;;;11.00;99.90;;;;;;5047709;28;20015;-72
2022/01/01 05:55:32;;;;;;;;;;;11.00;99.90;;;;;;5051710;28;20043;-72
2022/01/01 05:57:57;;;;;;;;;;;11.00;99.90;;;;;;5049883;28;20005;-72
2022/01/01 06:00:23;;;;;;;;;;;11.10;99.90;;;;;;5053570;28;20038;-72
2022/01/01 06:02:48;;;;;;;;;;;11.00;99.90;;;;;;5046951;28;19923;-72
2022/01/01 06:05:14;;;;;;;;;;;11.10;99.90;;;;;;5053426;28;19917;-72
2022/01/01 06:07:39;;;;;;;;;;;11.10;99.90;;;;;;5051034;28;19974;-72
2022/01/01 06:10:05;;;;;;;;;;;11.10;99.90;;;;;;5052980;28;19915;-72
2022/01/01 06:12:30;;;;;;;;;;;11.00;99.90;;;;;;5045811;28;19931;-72
2022/01/01 06:14:56;;;;;;;;;;;11.00;99.90;;;;;;5050386;28;19939;-72
2022/01/01 06:17:21;;;;;;;;;;;11.00;99.90;;;;;;5048849;28;19920;-72
2022/01/01 06:19:47;;;;;;;;;;;11.00;99.90;;;;;;5051259;28;19939;-72
2022/01/01 06:22:13;;;;;;;;;;;11.00;99.90;;;;;;5048035;28;19931;-72
2022/01/01 06:24:39;;;;;;;;;;;11.00;99.90;;;;;;5051610;28;19913;-72
2022/01/01 06:27:04;;;;;;;;;;;11.00;99.90;;;;;;5056264;28;20271;-72
2022/01/01 06:29:30;;;;;;;;;;;11.10;99.90;;;;;;5047791;28;19986;-72
2022/01/01 06:31:55;;;;;;;;;;;11.00;99.90;;;;;;5051181;28;19913;-72
2022/01/01 06:34:21;;;;;;;;;;;11.00;99.90;;;;;;5049361;28;19924;-72
2022/01/01 06:36:46;;;;;;;;;;;11.10;99.90;;;;;;5054963;28;19912;-72
2022/01/01 06:39:12;;;;;;;;;;;11.10;99.90;;;;;;5047164;28;19916;-72
2022/01/01 06:41:37;;;;;;;;;;;11.00;99.90;;;;;;5057046;28;19908;-72
2022/01/01 06:44:03;;;;;;;;;;;11.00;99.90;;;;;;5049341;28;20282;-72
2022/01/01 06:46:28;;;;;;;;;;;11.10;99.90;;;;;;5050806;28;20285;-72
2022/01/01 06:48:54;;;;;;;;;;;11.00;99.90;;;;;;5048296;28;19982;-72
2022/01/01 06:51:19;;;;;;;;;;;11.00;99.90;;;;;;5051826;28;19909;-72
2022/01/01 06:53:45;;;;;;;;;;;11.00;99.90;;;;;;5048372;28;19966;-72
2022/01/01 06:56:10;;;;;;;;;;;11.00;99.90;;;;;;5056152;28;19909;-72
2022/01/01 06:58:37;;;;;;;;;;;11.00;99.90;;;;;;5051404;28;19956;-72
2022/01/01 07:01:03;;;;;;;;;;;11.00;99.90;;;;;;5051237;28;19913;-72
2022/01/01 07:03:28;;;;;;;;;;;11.00;99.90;;;;;;5050867;28;20013;-72
2022/01/01 07:05:54;;;;;;;;;;;11.00;99.90;;;;;;5036060;28;19919;-72
2022/01/01 07:08:19;;;;;;;;;;;11.00;99.90;;;;;;5052485;28;19959;-72
2022/01/01 07:10:45;;;;;;;;;;;11.00;99.90;;;;;;5031134;28;20004;-72
2022/01/01 07:13:12;;;;;;;;;;;11.00;99.90;;;;;;5046617;28;19920;-72
2022/01/01 07:15:37;;;;;;;;;;;11.00;99.90;;;;;;5048223;28;19944;-72
2022/01/01 07:18:03;;;;;;;;;;;11.00;99.90;;;;;;5051267;28;20333;-72
2022/01/01 07:20:28;;;;;;;;;;;11.00;99.90;;;;;;5047161;28;20278;-72
2022/01/01 07:22:54;;;;;;;;;;;11.00;99.90;;;;;;5052067;28;19987;-72
2022/01/01 07:25:20;;;;;;;;;;;11.00;99.90;;;;;;5048783;28;20247;-72
2022/01/01 07:27:45;;;;;;;;;;;11.00;99.90;;;;;;5051086;28;19917;-72
2022/01/01 07:30:11;;;;;;;;;;;11.00;99.90;;;;;;5047779;28;20003;-72
2022/01/01 07:32:41;;;;;;;;;;;10.90;99.90;;;;;;5050850;28;19914;-72
2022/01/01 07:35:07;;;;;;;;;;;11.00;99.90;;;;;;5047386;28;19912;-72
2022/01/01 07:37:33;;;;;;;;;;;11.00;99.90;;;;;;5032290;28;19913;-72
2022/01/01 07:39:58;;;;;;;;;;;11.00;99.90;;;;;;5055973;28;19999;-72
2022/01/01 07:42:24;;;;;;;;;;;11.00;99.90;;;;;;5029722;28;19916;-72
2022/01/01 07:44:49;;;;;;;;;;;11.00;99.90;;;;;;5047775;28;19921;-72
2022/01/01 07:47:15;;;;;;;;;;;11.00;99.90;;;;;;5045834;28;19970;-72
2022/01/01 07:49:42;;;;;;;;;;;11.00;99.90;;;;;;5050437;28;19967;-72
2022/01/01 07:52:08;;;;;;;;;;;11.00;99.90;;;;;;5048683;28;20350;-72
2022/01/01 07:54:33;;;;;;;;;;;11.00;99.90;;;;;;5050024;28;19909;-72
2022/01/01 07:56:59;;;;;;;;;;;11.00;99.90;;;;;;5049073;28;20396;-72
2022/01/01 07:59:24;;;;;;;;;;;11.00;99.90;;;;;;5048200;28;19913;-72
2022/01/01 08:01:50;;;;;;;;;;;11.00;99.90;;;;;;5044745;28;20270;-72
2022/01/01 08:04:15;;;;;;;;;;;11.00;99.90;;;;;;5049570;28;19913;-72
2022/01/01 08:06:41;;;;;;;;;;;11.00;99.90;;;;;;5052769;28;19939;-72
2022/01/01 08:09:06;;;;;;;;;;;11.00;99.90;;;;;;5049837;28;19935;-72
2022/01/01 08:11:32;;;;;;;;;;;11.00;99.90;;;;;;5044784;28;19917;-72
2022/01/01 08:13:57;;;;;;;;;;;11.00;99.90;;;;;;5049184;28;20010;-72
2022/01/01 08:16:23;;;;;;;;;;;11.00;99.90;;;;;;5052877;28;19951;-72
2022/01/01 08:18:48;;;;;;;;;;;11.00;99.90;;;;;;5046947;28;21123;-72
2022/01/01 08:21:14;;;;;;;;;;;11.10;99.90;;;;;;5059199;28;19960;-72
2022/01/01 08:23:39;;;;;;;;;;;11.10;99.90;;;;;;5045860;28;19948;-72
2022/01/01 08:26:05;;;;;;;;;;;11.10;99.90;;;;;;5049059;28;19987;-72
2022/01/01 08:28:30;;;;;;;;;;;11.10;99.90;;;;;;5045866;28;20012;-72
2022/01/01 08:30:56;;;;;;;;;;;11.00;99.90;;;;;;5048958;28;20011;-72
2022/01/01 08:33:21;;;;;;;;;;;11.10;99.90;;;;;;5047178;28;19971;-72
2022/01/01 08:35:47;;;;;;;;;;;11.10;99.90;;;;;;5051773;28;19917;-72
2022/01/01 08:38:13;;;;;;;;;;;11.10;99.90;;;;;;5045095;28;19920;-72
2022/01/01 08:40:39;;;;;;;;;;;11.10;99.90;;;;;;5065431;28;19913;-72
2022/01/01 08:43:05;;;;;;;;;;;11.10;99.90;;;;;;5044821;28;19919;-72
2022/01/01 08:45:30;;;;;;;;;;;11.10;99.90;;;;;;5050464;28;19995;-72
2022/01/01 08:47:55;;;;;;;;;;;11.10;99.90;;;;;;5046710;28;19965;-72
2022/01/01 08:50:21;;;;;;;;;;;11.10;99.90;;;;;;5033453;28;19934;-72
2022/01/01 08:52:48;;;;;;;;;;;11.10;99.90;;;;;;5048656;28;19920;-72
2022/01/01 08:55:13;;;;;;;;;;;11.10;99.90;;;;;;5052641;28;19909;-72
2022/01/01 08:57:39;;;;;;;;;;;11.10;99.90;;;;;;5033163;28;20440;-72
2022/01/01 09:00:06;;;;;;;;;;;11.10;99.90;;;;;;5047489;28;20304;-72
2022/01/01 09:02:32;;;;;;;;;;;11.10;99.90;;;;;;5049303;28;19917;-72
2022/01/01 09:04:57;;;;;;;;;;;11.20;99.90;;;;;;5047282;28;20404;-72
2022/01/01 09:07:28;;;;;;;;;;;11.10;99.90;;;;;;5051311;28;19970;-72
2022/01/01 09:09:54;;;;;;;;;;;11.20;99.90;;;;;;5052967;28;19913;-72
2022/01/01 09:12:20;;;;;;;;;;;11.20;99.90;;;;;;5052061;28;19916;-72
2022/01/01 09:14:45;;;;;;;;;;;11.20;99.90;;;;;;5051150;28;20026;-72
2022/01/01 09:17:11;;;;;;;;;;;11.20;99.90;;;;;;5051492;28;19966;-72
2022/01/01 09:19:36;;;;;;;;;;;11.20;99.90;;;;;;5048610;28;19912;-72
2022/01/01 09:22:02;;;;;;;;;;;11.30;99.90;;;;;;5036749;28;19920;-72
2022/01/01 09:24:27;;;;;;;;;;;11.30;99.90;;;;;;5049551;28;20000;-72
2022/01/01 09:26:53;;;;;;;;;;;11.30;99.90;;;;;;5051322;28;20358;-72
2022/01/01 09:29:18;;;;;;;;;;;11.30;99.90;;;;;;5037725;28;19908;-72
2022/01/01 09:31:44;;;;;;;;;;;11.30;99.90;;;;;;5050960;28;19917;-72
2022/01/01 09:34:10;;;;;;;;;;;11.30;99.90;;;;;;5053153;28;19913;-72
2022/01/01 09:36:35;;;;;;;;;;;11.40;99.90;;;;;;5049328;28;20350;-72
2022/01/01 09:39:03;;;;;;;;;;;11.40;99.80;;;;;;5052567;28;20357;-72
2022/01/01 09:41:29;;;;;;;;;;;11.40;99.90;;;;;;5030280;28;21347;-72
2022/01/01 09:43:55;;;;;;;;;;;11.40;99.90;;;;;;5055125;28;19951;-72
2022/01/01 09:46:21;;;;;;;;;;;11.40;99.90;;;;;;5052077;28;19917;-73
2022/01/01 09:48:47;;;;;;;;;;;11.40;99.90;;;;;;5049253;28;19913;-72
2022/01/01 09:51:14;;;;;;;;;;;11.40;99.80;;;;;;5048064;28;19956;-72
2022/01/01 09:53:39;;;;;;;;;;;11.40;99.80;;;;;;5050764;28;20672;-72
2022/01/01 09:56:05;;;;;;;;;;;11.40;99.90;;;;;;5064844;28;19917;-72
2022/01/01 09:58:32;;;;;;;;;;;11.50;99.80;;;;;;5053897;28;19917;-72
2022/01/01 10:00:58;;;;;;;;;;;11.50;99.80;;;;;;5035727;28;20001;-72
2022/01/01 10:03:27;;;;;;;;;;;11.50;99.70;;;;;;5051247;28;20500;-72
2022/01/01 10:06:04;;;;;;;;;;;11.60;99.70;;;;;;5048467;28;19995;-72
2022/01/01 10:08:30;;;;;;;;;;;11.60;99.60;;;;;;5054177;28;19921;-72
2022/01/01 10:10:56;;;;;;;;;;;11.60;99.50;;;;;;5057707;28;19966;-72
2022/01/01 10:13:26;;;;;;;;;;;11.60;99.60;;;;;;5046915;28;20357;-72
2022/01/01 10:15:52;;;;;;;;;;;11.60;99.50;;;;;;5050900;28;20508;-72
2022/01/01 10:18:23;;;;;;;;;;;11.60;99.50;;;;;;5046315;28;19913;-72
2022/01/01 10:20:54;;;;;;;;;;;11.60;99.50;;;;;;5049169;28;19952;-72
2022/01/01 10:23:26;;;;;;;;;;;11.70;99.60;;;;;;5045998;28;19917;-72
2022/01/01 10:28:35;;;;;;;;;;;11.70;99.50;;;;;;5047486;28;19954;-72
2022/01/01 10:31:06;;;;;;;;;;;11.70;99.50;;;;;;5049518;28;20338;-72
2022/01/01 10:33:32;;;;;;;;;;;11.80;99.60;;;;;;5048169;28;19917;-72
2022/01/01 10:35:57;;;;;;;;;;;11.80;99.40;;;;;;5050108;28;19913;-72
2022/01/01 10:38:26;;;;;;;;;;;11.80;99.40;;;;;;5029535;28;20354;-72
2022/01/01 10:41:05;;;;;;;;;;;11.80;99.30;;;;;;5052061;28;19921;-72
2022/01/01 10:43:34;;;;;;;;;;;11.80;99.20;;;;;;5048330;28;19917;-72
2022/01/01 10:46:02;;;;;;;;;;;11.90;99.10;;;;;;5054734;28;19959;-72
2022/01/01 10:48:40;;;;;;;;;;;11.90;99.00;;;;;;5049431;28;19923;-72
2022/01/01 10:51:09;;;;;;;;;;;12.00;99.00;;;;;;5049810;28;19919;-72
2022/01/01 10:53:35;;;;;;;;;;;12.00;99.00;;;;;;5047772;28;19919;-72
2022/01/01 10:56:02;;;;;;;;;;;12.00;99.10;;;;;;5034937;28;19913;-72
2022/01/01 10:58:29;;;;;;;;;;;12.00;99.00;;;;;;5048098;28;20342;-72
2022/01/01 11:00:59;;;;;;;;;;;12.00;99.20;;;;;;5049599;28;19920;-72
2022/01/01 11:03:24;;;;;;;;;;;12.00;99.00;;;;;;5047425;28;20431;-72
2022/01/01 11:06:02;;;;;;;;;;;12.10;99.00;;;;;;5048514;28;19920;-72
2022/01/01 11:08:28;;;;;;;;;;;12.10;99.10;;;;;;5046857;28;19936;-72
2022/01/01 11:10:53;;;;;;;;;;;12.10;98.90;;;;;;5049174;28;20027;-72
2022/01/01 11:13:19;;;;;;;;;;;12.10;98.90;;;;;;5046925;28;20532;-73
2022/01/01 11:15:45;;;;;;;;;;;12.20;98.90;;;;;;5050724;28;19956;-72
2022/01/01 11:18:12;;;;;;;;;;;12.20;98.90;;;;;;5049765;28;19999;-72
2022/01/01 11:20:39;;;;;;;;;;;12.20;98.90;;;;;;5029808;28;19986;-72
2022/01/01 11:23:08;;;;;;;;;;;12.20;98.90;;;;;;5048104;28;19916;-72
2022/01/01 11:25:35;;;;;;;;;;;12.20;98.90;;;;;;5047492;28;19938;-72
2022/01/01 11:28:01;;;;;;;;;;;12.30;99.00;;;;;;5049123;28;19952;-72
2022/01/01 11:30:28;;;;;;;;;;;12.20;98.80;;;;;;5044790;28;19913;-72
2022/01/01 11:33:11;;;;;;;;;;;12.30;98.90;;;;;;5048603;28;19917;-72
2022/01/01 11:35:58;;;;;;;;;;;12.30;98.80;;;;;;5061456;28;20427;-72
2022/01/01 11:38:25;;;;;;;;;;;12.30;98.60;;;;;;5047792;28;19994;-72
2022/01/01 11:40:57;;;;;;;;;;;12.40;98.60;;;;;;5035642;28;19924;-72
2022/01/01 11:43:29;;;;;;;;;;;12.40;98.50;;;;;;5049133;28;19909;-72
2022/01/01 11:45:57;;;;;;;;;;;12.50;98.40;;;;;;5047812;28;19921;-72
2022/01/01 11:48:30;;;;;;;;;;;12.50;98.40;;;;;;5046825;28;20279;-72
2022/01/01 11:50:56;;;;;;;;;;;12.50;98.50;;;;;;5045180;28;19913;-72
2022/01/01 11:53:31;;;;;;;;;;;12.50;98.40;;;;;;5049643;28;19913;-72
2022/01/01 11:56:22;;;;;;;;;;;12.50;98.50;;;;;;5046832;28;19960;-72
2022/01/01 11:58:49;;;;;;;;;;;12.50;98.40;;;;;;5046211;28;20675;-72
2022/01/01 12:01:16;;;;;;;;;;;12.60;98.50;;;;;;5049572;28;20331;-72
2022/01/01 12:03:51;;;;;;;;;;;12.60;98.60;;;;;;5050024;28;19919;-72
2022/01/01 12:06:17;;;;;;;;;;;12.60;98.60;;;;;;5046113;28;20368;-72
2022/01/01 12:08:46;;;;;;;;;;;12.60;98.60;;;;;;5050417;28;19928;-72
2022/01/01 12:11:28;;;;;;;;;;;12.60;98.70;;;;;;5047942;28;19912;-72
2022/01/01 12:13:57;;;;;;;;;;;12.60;98.60;;;;;;5050833;28;20008;-72
2022/01/01 12:16:22;;;;;;;;;;;12.60;98.60;;;;;;5030441;28;19917;-72
2022/01/01 12:18:48;;;;;;;;;;;12.60;98.50;;;;;;5049393;28;20029;-72
2022/01/01 12:21:21;;;;;;;;;;;12.60;98.70;;;;;;5045084;28;20058;-72
2022/01/01 12:23:48;;;;;;;;;;;12.70;98.60;;;;;;5050799;28;19916;-72
2022/01/01 12:26:14;;;;;;;;;;;12.70;98.60;;;;;;5050048;28;19955;-72
2022/01/01 12:28:42;;;;;;;;;;;12.70;98.50;;;;;;5050580;28;19921;-72
2022/01/01 12:31:10;;;;;;;;;;;12.70;98.60;;;;;;5048459;28;19983;-72
2022/01/01 12:33:39;;;;;;;;;;;12.70;98.50;;;;;;5045877;28;19932;-72
2022/01/01 12:36:05;;;;;;;;;;;12.70;98.50;;;;;;5048411;28;19999;-72
2022/01/01 12:38:31;;;;;;;;;;;12.70;98.50;;;;;;5046715;28;20396;-72
2022/01/01 12:40:59;;;;;;;;;;;12.80;98.50;;;;;;5049332;28;19916;-72
2022/01/01 12:43:25;;;;;;;;;;;12.70;98.50;;;;;;5047191;28;19913;-72
2022/01/01 12:45:51;;;;;;;;;;;12.70;98.60;;;;;;5053022;28;19936;-72
2022/01/01 12:48:21;;;;;;;;;;;12.70;98.50;;;;;;5048290;28;20257;-72
2022/01/01 12:50:47;;;;;;;;;;;12.70;98.60;;;;;;5053068;28;19943;-72
2022/01/01 12:53:12;;;;;;;;;;;12.80;98.50;;;;;;5049510;28;20354;-72
2022/01/01 12:55:38;;;;;;;;;;;12.80;98.50;;;;;;5053127;28;19948;-72
2022/01/01 12:58:07;;;;;;;;;;;12.80;98.40;;;;;;5050183;28;19913;-72
2022/01/01 13:00:37;;;;;;;;;;;12.80;98.50;;;;;;5051142;28;19921;-72
2022/01/01 13:03:04;;;;;;;;;;;12.80;98.50;;;;;;5051743;28;19966;-72
2022/01/01 13:05:29;;;;;;;;;;;12.80;98.50;;;;;;5054674;28;19928;-72
2022/01/01 13:07:55;;;;;;;;;;;12.80;98.70;;;;;;5050930;28;19916;-72
2022/01/01 13:10:22;;;;;;;;;;;12.80;98.60;;;;;;5054958;28;19920;-72
2022/01/01 13:12:48;;;;;;;;;;;12.80;98.80;;;;;;5052780;28;19917;-72
2022/01/01 13:15:14;;;;;;;;;;;12.80;98.90;;;;;;5052955;28;20282;-72
2022/01/01 13:17:46;;;;;;;;;;;12.70;98.80;;;;;;5053062;28;19913;-72
2022/01/01 13:20:12;;;;;;;;;;;12.70;98.90;;;;;;5047022;28;20354;-72
2022/01/01 13:22:39;;;;;;;;;;;12.70;99.00;;;;;;5052136;28;19909;-72
2022/01/01 13:25:05;;;;;;;;;;;12.70;99.10;;;;;;5051613;28;19919;-72
2022/01/01 13:27:32;;;;;;;;;;;12.70;99.10;;;;;;5052259;28;19920;-72
2022/01/01 13:29:59;;;;;;;;;;;12.70;99.20;;;;;;5039977;28;19917;-72
2022/01/01 13:32:25;;;;;;;;;;;12.70;99.20;;;;;;5051781;28;19915;-72
2022/01/01 13:34:52;;;;;;;;;;;12.70;99.20;;;;;;5049569;28;19992;-72
2022/01/01 13:37:23;;;;;;;;;;;12.70;99.20;;;;;;5051808;28;19979;-72
2022/01/01 13:39:48;;;;;;;;;;;12.70;99.20;;;;;;5049434;28;20352;-72
2022/01/01 13:42:17;;;;;;;;;;;12.70;99.20;;;;;;5046040;28;19909;-72
2022/01/01 13:44:43;;;;;;;;;;;12.70;99.20;;;;;;5051285;28;19913;-72
2022/01/01 13:47:13;;;;;;;;;;;12.70;99.20;;;;;;5053954;28;19978;-72
2022/01/01 13:49:39;;;;;;;;;;;12.70;99.40;;;;;;5049286;28;20925;-72
2022/01/01 13:52:04;;;;;;;;;;;12.70;99.20;;;;;;5048437;28;20007;-72
2022/01/01 13:54:34;;;;;;;;;;;12.70;99.30;;;;;;5052503;28;19931;-72
2022/01/01 13:57:05;;;;;;;;;;;12.70;99.30;;;;;;5035201;28;20011;-72
2022/01/01 13:59:31;;;;;;;;;;;12.70;99.30;;;;;;5055254;28;19921;-72
2022/01/01 14:01:57;;;;;;;;;;;12.70;99.30;;;;;;5049096;28;20360;-72
2022/01/01 14:04:24;;;;;;;;;;;12.60;99.20;;;;;;5047770;28;19975;-72
2022/01/01 14:07:11;;;;;;;;;;;12.70;99.30;;;;;;5047196;28;20011;-72
2022/01/01 14:09:55;;;;;;;;;;;12.60;99.30;;;;;;5030483;28;20297;-72
2022/01/01 14:12:21;;;;;;;;;;;12.60;99.40;;;;;;5050805;28;19924;-72
2022/01/01 14:14:46;;;;;;;;;;;12.60;99.40;;;;;;5051845;28;19925;-72
2022/01/01 14:17:12;;;;;;;;;;;12.60;99.50;;;;;;5049344;28;20492;-72